sensor_id;sensor_type;location;lat;lon;timestamp;pressure;altitude;pressure_sealevel;temperature;humidity
42177;BME280;28126;51.060;19.460;2022-08-21T00:02:55;99643.86;;;27.01;58.79
42177;BME280;28126;51.060;19.460;2022-08-21T00:05:56;99645.88;;;26.95;58.93
42177;BME280;28126;51.060;19.460;2022-08-21T00:08:57;99651.45;;;26.90;59.05
42177;BME280;28126;51.060;19.460;2022-08-21T00:11:59;99648.74;;;26.88;59.17
42177;BME280;28126;51.060;19.460;2022-08-21T00:15:02;99660.34;;;26.87;59.42
42177;BME280;28126;51.060;19.460;2022-08-21T00:18:06;99661.87;;;26.96;59.38
42177;BME280;28126;51.060;19.460;2022-08-21T00:21:08;99658.22;;;27.01;59.31
42177;BME280;28126;51.060;19.460;2022-08-21T00:24:09;99653.45;;;27.06;59.24
42177;BME280;28126;51.060;19.460;2022-08-21T00:27:10;99637.92;;;27.10;58.86
42177;BME280;28126;51.060;19.460;2022-08-21T00:30:15;99633.13;;;27.16;58.68
42177;BME280;28126;51.060;19.460;2022-08-21T00:33:17;99629.19;;;27.22;58.56
42177;BME280;28126;51.060;19.460;2022-08-21T00:36:19;99625.84;;;27.25;58.46
42177;BME280;28126;51.060;19.460;2022-08-21T00:39:20;99630.45;;;27.29;58.39
42177;BME280;28126;51.060;19.460;2022-08-21T00:42:21;99629.31;;;27.33;58.32
42177;BME280;28126;51.060;19.460;2022-08-21T00:45:24;99621.27;;;27.36;58.24
42177;BME280;28126;51.060;19.460;2022-08-21T00:48:26;99620.96;;;27.38;58.18
42177;BME280;28126;51.060;19.460;2022-08-21T00:51:54;99618.72;;;27.40;58.17
42177;BME280;28126;51.060;19.460;2022-08-21T00:54:42;99616.50;;;27.39;58.18
42177;BME280;28126;51.060;19.460;2022-08-21T00:57:52;99613.74;;;27.39;58.20
42177;BME280;28126;51.060;19.460;2022-08-21T01:00:51;99614.58;;;27.40;58.17
42177;BME280;28126;51.060;19.460;2022-08-21T01:03:54;99616.75;;;27.40;58.13
42177;BME280;28126;51.060;19.460;2022-08-21T01:06:56;99615.86;;;27.45;58.06
42177;BME280;28126;51.060;19.460;2022-08-21T01:09:57;99612.23;;;27.47;58.08
42177;BME280;28126;51.060;19.460;2022-08-21T01:12:59;99609.98;;;27.49;58.08
42177;BME280;28126;51.060;19.460;2022-08-21T01:16:05;99612.45;;;27.50;58.00
42177;BME280;28126;51.060;19.460;2022-08-21T01:19:08;99606.05;;;27.52;58.06
42177;BME280;28126;51.060;19.460;2022-08-21T01:22:11;99610.42;;;27.40;58.15
42177;BME280;28126;51.060;19.460;2022-08-21T01:25:15;99595.31;;;27.51;58.02
42177;BME280;28126;51.060;19.460;2022-08-21T01:28:18;99592.20;;;27.55;57.87
42177;BME280;28126;51.060;19.460;2022-08-21T01:31:23;99582.52;;;27.55;57.96
42177;BME280;28126;51.060;19.460;2022-08-21T01:34:26;99587.78;;;27.54;57.95
42177;BME280;28126;51.060;19.460;2022-08-21T01:37:28;99591.25;;;27.46;57.99
42177;BME280;28126;51.060;19.460;2022-08-21T01:40:29;99591.63;;;27.39;58.10
42177;BME280;28126;51.060;19.460;2022-08-21T01:43:31;99582.51;;;27.39;58.21
42177;BME280;28126;51.060;19.460;2022-08-21T01:46:32;99577.50;;;27.41;58.14
42177;BME280;28126;51.060;19.460;2022-08-21T01:49:36;99579.41;;;27.43;58.05
42177;BME280;28126;51.060;19.460;2022-08-21T01:52:38;99565.86;;;27.44;58.00
42177;BME280;28126;51.060;19.460;2022-08-21T01:55:39;99568.86;;;27.45;57.97
42177;BME280;28126;51.060;19.460;2022-08-21T01:58:47;99572.16;;;27.47;57.83
42177;BME280;28126;51.060;19.460;2022-08-21T02:01:48;99562.48;;;27.47;57.80
42177;BME280;28126;51.060;19.460;2022-08-21T02:04:51;99564.72;;;27.45;57.77
42177;BME280;28126;51.060;19.460;2022-08-21T02:07:54;99562.51;;;27.44;57.81
42177;BME280;28126;51.060;19.460;2022-08-21T02:10:56;99561.13;;;27.44;57.79
42177;BME280;28126;51.060;19.460;2022-08-21T02:13:57;99556.19;;;27.44;57.76
42177;BME280;28126;51.060;19.460;2022-08-21T02:16:59;99547.37;;;27.42;57.75
42177;BME280;28126;51.060;19.460;2022-08-21T02:20:02;99556.77;;;27.41;57.81
42177;BME280;28126;51.060;19.460;2022-08-21T02:23:07;99554.31;;;27.39;57.78
42177;BME280;28126;51.060;19.460;2022-08-21T02:26:11;99551.58;;;27.37;57.91
42177;BME280;28126;51.060;19.460;2022-08-21T02:29:13;99553.27;;;27.35;57.97
42177;BME280;28126;51.060;19.460;2022-08-21T02:32:14;99550.27;;;27.34;57.90
42177;BME280;28126;51.060;19.460;2022-08-21T02:35:17;99549.16;;;27.33;57.95
42177;BME280;28126;51.060;19.460;2022-08-21T02:38:25;99539.80;;;27.29;58.01
42177;BME280;28126;51.060;19.460;2022-08-21T02:41:26;99544.25;;;27.27;58.02
42177;BME280;28126;51.060;19.460;2022-08-21T02:44:28;99547.30;;;27.10;58.23
42177;BME280;28126;51.060;19.460;2022-08-21T02:47:29;99549.32;;;27.23;58.06
42177;BME280;28126;51.060;19.460;2022-08-21T02:50:36;99546.50;;;27.25;58.00
42177;BME280;28126;51.060;19.460;2022-08-21T02:53:39;99541.80;;;27.26;57.92
42177;BME280;28126;51.060;19.460;2022-08-21T02:56:40;99548.16;;;27.26;57.91
42177;BME280;28126;51.060;19.460;2022-08-21T02:59:42;99546.16;;;27.29;57.87
42177;BME280;28126;51.060;19.460;2022-08-21T03:02:44;99554.97;;;27.34;57.84
42177;BME280;28126;51.060;19.460;2022-08-21T03:05:48;99543.91;;;27.34;57.81
42177;BME280;28126;51.060;19.460;2022-08-21T03:08:50;99549.68;;;27.35;57.73
42177;BME280;28126;51.060;19.460;2022-08-21T03:11:51;99553.55;;;27.36;57.70
42177;BME280;28126;51.060;19.460;2022-08-21T03:14:53;99552.17;;;27.36;57.70
42177;BME280;28126;51.060;19.460;2022-08-21T03:17:55;99554.97;;;27.34;57.75
42177;BME280;28126;51.060;19.460;2022-08-21T03:20:58;99561.59;;;27.33;57.68
42177;BME280;28126;51.060;19.460;2022-08-21T03:24:00;99569.34;;;27.31;57.70
42177;BME280;28126;51.060;19.460;2022-08-21T03:27:01;99568.02;;;27.28;57.73
42177;BME280;28126;51.060;19.460;2022-08-21T03:30:06;99562.77;;;27.27;57.74
42177;BME280;28126;51.060;19.460;2022-08-21T03:33:08;99568.30;;;27.27;57.71
42177;BME280;28126;51.060;19.460;2022-08-21T03:36:10;99574.09;;;27.28;57.72
42177;BME280;28126;51.060;19.460;2022-08-21T03:39:11;99564.98;;;27.27;58.00
42177;BME280;28126;51.060;19.460;2022-08-21T03:42:12;99565.75;;;27.33;57.72
42177;BME280;28126;51.060;19.460;2022-08-21T03:45:16;99566.78;;;27.37;57.54
42177;BME280;28126;51.060;19.460;2022-08-21T03:48:19;99565.34;;;27.42;57.60
42177;BME280;28126;51.060;19.460;2022-08-21T03:51:21;99564.72;;;27.45;57.58
42177;BME280;28126;51.060;19.460;2022-08-21T03:54:23;99562.75;;;27.48;57.50
42177;BME280;28126;51.060;19.460;2022-08-21T03:57:26;99559.13;;;27.50;57.31
42177;BME280;28126;51.060;19.460;2022-08-21T04:00:27;99559.05;;;27.52;57.22
42177;BME280;28126;51.060;19.460;2022-08-21T04:03:29;99561.52;;;27.54;57.11
42177;BME280;28126;51.060;19.460;2022-08-21T04:06:32;99562.03;;;27.56;56.97
42177;BME280;28126;51.060;19.460;2022-08-21T04:09:34;99556.78;;;27.57;56.89
42177;BME280;28126;51.060;19.460;2022-08-21T04:12:36;99557.54;;;27.60;56.72
42177;BME280;28126;51.060;19.460;2022-08-21T04:15:38;99557.26;;;27.61;56.60
42177;BME280;28126;51.060;19.460;2022-08-21T04:18:41;99547.83;;;27.62;56.50
42177;BME280;28126;51.060;19.460;2022-08-21T04:21:43;99551.11;;;27.64;56.37
42177;BME280;28126;51.060;19.460;2022-08-21T04:24:45;99548.59;;;27.65;56.26
42177;BME280;28126;51.060;19.460;2022-08-21T04:27:47;99554.91;;;27.68;55.97
42177;BME280;28126;51.060;19.460;2022-08-21T04:30:51;99554.59;;;27.70;55.83
42177;BME280;28126;51.060;19.460;2022-08-21T04:33:52;99553.48;;;27.71;55.66
42177;BME280;28126;51.060;19.460;2022-08-21T04:36:54;99552.04;;;27.73;55.49
42177;BME280;28126;51.060;19.460;2022-08-21T04:39:56;99550.94;;;27.74;55.34
42177;BME280;28126;51.060;19.460;2022-08-21T04:43:05;99551.73;;;27.75;55.29
42177;BME280;28126;51.060;19.460;2022-08-21T04:46:06;99548.09;;;27.77;55.15
42177;BME280;28126;51.060;19.460;2022-08-21T04:49:08;99552.25;;;27.77;55.12
42177;BME280;28126;51.060;19.460;2022-08-21T04:52:10;99551.37;;;27.79;54.96
42177;BME280;28126;51.060;19.460;2022-08-21T04:55:12;99550.27;;;27.80;54.70
42177;BME280;28126;51.060;19.460;2022-08-21T04:58:17;99547.75;;;27.81;54.61
42177;BME280;28126;51.060;19.460;2022-08-21T05:01:22;99551.89;;;27.81;54.61
42177;BME280;28126;51.060;19.460;2022-08-21T05:04:29;99556.05;;;27.81;54.61
42177;BME280;28126;51.060;19.460;2022-08-21T05:07:32;99551.09;;;27.80;54.29
42177;BME280;28126;51.060;19.460;2022-08-21T05:10:33;99551.66;;;27.80;54.23
42177;BME280;28126;51.060;19.460;2022-08-21T05:13:36;99556.05;;;27.81;54.10
42177;BME280;28126;51.060;19.460;2022-08-21T05:16:38;99551.89;;;27.81;54.16
42177;BME280;28126;51.060;19.460;2022-08-21T05:19:40;99554.11;;;27.81;54.03
42177;BME280;28126;51.060;19.460;2022-08-21T05:22:42;99559.33;;;27.83;53.99
42177;BME280;28126;51.060;19.460;2022-08-21T05:25:43;99556.84;;;27.84;53.89
42177;BME280;28126;51.060;19.460;2022-08-21T05:28:45;99550.16;;;27.85;53.81
42177;BME280;28126;51.060;19.460;2022-08-21T05:31:47;99549.61;;;27.85;53.75
42177;BME280;28126;51.060;19.460;2022-08-21T05:34:49;99559.53;;;27.86;53.76
42177;BME280;28126;51.060;19.460;2022-08-21T05:37:51;99555.10;;;27.88;53.70
42177;BME280;28126;51.060;19.460;2022-08-21T05:40:53;99557.59;;;27.87;53.61
42177;BME280;28126;51.060;19.460;2022-08-21T05:43:55;99559.25;;;27.88;53.45
42177;BME280;28126;51.060;19.460;2022-08-21T05:47:04;99556.73;;;27.89;53.39
42177;BME280;28126;51.060;19.460;2022-08-21T05:50:07;99562.53;;;27.90;53.39
42177;BME280;28126;51.060;19.460;2022-08-21T05:53:10;99568.06;;;27.90;53.42
42177;BME280;28126;51.060;19.460;2022-08-21T05:56:12;99566.09;;;27.91;53.45
42177;BME280;28126;51.060;19.460;2022-08-21T05:59:14;99575.50;;;27.92;53.43
42177;BME280;28126;51.060;19.460;2022-08-21T06:02:18;99570.21;;;27.93;53.48
42177;BME280;28126;51.060;19.460;2022-08-21T06:05:20;99574.67;;;27.94;53.40
42177;BME280;28126;51.060;19.460;2022-08-21T06:08:23;99573.52;;;27.95;53.41
42177;BME280;28126;51.060;19.460;2022-08-21T06:11:25;99568.82;;;27.96;53.42
42177;BME280;28126;51.060;19.460;2022-08-21T06:14:26;99568.27;;;27.96;53.45
42177;BME280;28126;51.060;19.460;2022-08-21T06:17:28;99576.56;;;27.96;53.60
42177;BME280;28126;51.060;19.460;2022-08-21T06:20:29;99575.19;;;27.96;53.58
42177;BME280;28126;51.060;19.460;2022-08-21T06:23:32;99580.72;;;27.96;53.62
42177;BME280;28126;51.060;19.460;2022-08-21T06:26:34;99580.45;;;27.93;53.51
42177;BME280;28126;51.060;19.460;2022-08-21T06:29:36;99583.84;;;27.90;53.50
42177;BME280;28126;51.060;19.460;2022-08-21T06:32:39;99582.49;;;27.87;53.40
42177;BME280;28126;51.060;19.460;2022-08-21T06:35:41;99590.27;;;27.85;53.24
42177;BME280;28126;51.060;19.460;2022-08-21T06:38:42;99583.98;;;27.82;53.30
42177;BME280;28126;51.060;19.460;2022-08-21T06:41:44;99585.36;;;27.82;53.41
42177;BME280;28126;51.060;19.460;2022-08-21T06:44:46;99587.05;;;27.80;53.32
42177;BME280;28126;51.060;19.460;2022-08-21T06:47:48;99586.75;;;27.82;53.51
42177;BME280;28126;51.060;19.460;2022-08-21T06:50:50;99594.00;;;27.78;53.71
42177;BME280;28126;51.060;19.460;2022-08-21T06:53:53;99590.45;;;27.75;53.76
42177;BME280;28126;51.060;19.460;2022-08-21T06:56:55;99584.43;;;27.73;53.71
42177;BME280;28126;51.060;19.460;2022-08-21T06:59:56;99599.36;;;27.72;53.65
42177;BME280;28126;51.060;19.460;2022-08-21T07:02:58;99595.25;;;27.69;53.67
42177;BME280;28126;51.060;19.460;2022-08-21T07:06:00;99604.37;;;27.70;53.79
42177;BME280;28126;51.060;19.460;2022-08-21T07:09:03;99603.82;;;27.70;53.85
42177;BME280;28126;51.060;19.460;2022-08-21T07:12:04;99603.27;;;27.71;53.88
42177;BME280;28126;51.060;19.460;2022-08-21T07:15:08;99607.66;;;27.72;53.91
42177;BME280;28126;51.060;19.460;2022-08-21T07:18:11;99599.64;;;27.73;53.83
42177;BME280;28126;51.060;19.460;2022-08-21T07:21:13;99609.02;;;27.74;53.73
42177;BME280;28126;51.060;19.460;2022-08-21T07:24:15;99607.05;;;27.75;53.70
42177;BME280;28126;51.060;19.460;2022-08-21T07:27:16;99597.36;;;27.75;53.53
42177;BME280;28126;51.060;19.460;2022-08-21T07:30:18;99602.03;;;27.77;53.58
42177;BME280;28126;51.060;19.460;2022-08-21T07:33:20;99603.69;;;27.78;53.50
42177;BME280;28126;51.060;19.460;2022-08-21T07:36:22;99595.39;;;27.78;53.60
42177;BME280;28126;51.060;19.460;2022-08-21T07:39:24;99598.16;;;27.78;53.47
42177;BME280;28126;51.060;19.460;2022-08-21T07:42:26;99597.87;;;27.77;53.49
42177;BME280;28126;51.060;19.460;2022-08-21T07:45:28;99595.98;;;27.75;53.34
42177;BME280;28126;51.060;19.460;2022-08-21T07:48:29;99602.41;;;27.73;53.17
42177;BME280;28126;51.060;19.460;2022-08-21T07:51:32;99597.16;;;27.71;53.16
42177;BME280;28126;51.060;19.460;2022-08-21T07:54:34;99599.36;;;27.72;53.29
42177;BME280;28126;51.060;19.460;2022-08-21T07:57:36;99598.50;;;27.74;53.29
42177;BME280;28126;51.060;19.460;2022-08-21T08:00:37;99598.50;;;27.74;53.04
42177;BME280;28126;51.060;19.460;2022-08-21T08:03:41;99597.08;;;27.76;53.12
42177;BME280;28126;51.060;19.460;2022-08-21T08:06:43;99590.97;;;27.77;53.13
42177;BME280;28126;51.060;19.460;2022-08-21T08:09:45;99591.48;;;27.79;53.23
42177;BME280;28126;51.060;19.460;2022-08-21T08:12:48;99592.31;;;27.79;53.27
42177;BME280;28126;51.060;19.460;2022-08-21T08:15:52;99584.33;;;27.78;53.32
42177;BME280;28126;51.060;19.460;2022-08-21T08:18:53;99595.39;;;27.78;53.33
42177;BME280;28126;51.060;19.460;2022-08-21T08:21:56;99595.98;;;27.75;53.45
42177;BME280;28126;51.060;19.460;2022-08-21T08:24:58;99603.52;;;27.72;53.12
42177;BME280;28126;51.060;19.460;2022-08-21T08:28:00;99609.91;;;27.70;52.89
42177;BME280;28126;51.060;19.460;2022-08-21T08:31:02;99611.39;;;27.65;52.77
42177;BME280;28126;51.060;19.460;2022-08-21T08:34:05;99616.74;;;27.59;52.94
42177;BME280;28126;51.060;19.460;2022-08-21T08:37:09;99618.19;;;27.54;53.66
42177;BME280;28126;51.060;19.460;2022-08-21T08:43:33;99625.29;;;27.44;54.65
42177;BME280;28126;51.060;19.460;2022-08-21T08:46:47;99620.99;;;27.35;54.89
42177;BME280;28126;51.060;19.460;2022-08-21T08:50:11;99621.02;;;27.33;55.05
42177;BME280;28126;51.060;19.460;2022-08-21T08:56:33;99624.20;;;27.21;54.96
42177;BME280;28126;51.060;19.460;2022-08-21T08:59:42;99630.90;;;27.18;55.19
42177;BME280;28126;51.060;19.460;2022-08-21T09:02:46;99628.98;;;27.16;55.65
42177;BME280;28126;51.060;19.460;2022-08-21T09:06:00;99627.61;;;27.16;55.74
42177;BME280;28126;51.060;19.460;2022-08-21T09:13:14;99627.89;;;27.17;55.74
42177;BME280;28126;51.060;19.460;2022-08-21T09:20:08;99632.56;;;27.19;55.79
42177;BME280;28126;51.060;19.460;2022-08-21T09:23:49;99630.04;;;27.20;55.85
42177;BME280;28126;51.060;19.460;2022-08-21T09:27:12;99623.69;;;27.19;55.95
42177;BME280;28126;51.060;19.460;2022-08-21T09:30:15;99625.59;;;27.21;56.00
42177;BME280;28126;51.060;19.460;2022-08-21T09:33:17;99620.89;;;27.22;56.19
42177;BME280;28126;51.060;19.460;2022-08-21T09:39:43;99619.51;;;27.22;55.83
42177;BME280;28126;51.060;19.460;2022-08-21T09:42:55;99613.22;;;27.19;55.24
42177;BME280;28126;51.060;19.460;2022-08-21T09:46:11;99617.36;;;27.19;54.99
42177;BME280;28126;51.060;19.460;2022-08-21T09:49:26;99619.84;;;27.18;54.93
42177;BME280;28126;51.060;19.460;2022-08-21T09:52:22;99621.03;;;27.12;55.57
42177;BME280;28126;51.060;19.460;2022-08-21T09:55:34;99614.22;;;27.07;55.70
42177;BME280;28126;51.060;19.460;2022-08-21T09:58:55;99609.77;;;27.08;55.50
42177;BME280;28126;51.060;19.460;2022-08-21T10:02:00;99600.65;;;27.08;55.07
42177;BME280;28126;51.060;19.460;2022-08-21T10:05:19;99592.11;;;27.07;55.56
42177;BME280;28126;51.060;19.460;2022-08-21T10:08:23;99596.56;;;27.05;55.22
42177;BME280;28126;51.060;19.460;2022-08-21T10:11:27;99597.95;;;27.05;54.77
42177;BME280;28126;51.060;19.460;2022-08-21T10:21:27;99595.64;;;27.10;55.18
42177;BME280;28126;51.060;19.460;2022-08-21T10:28:06;99598.16;;;27.09;55.94
42177;BME280;28126;51.060;19.460;2022-08-21T10:34:53;99594.20;;;27.15;56.43
42177;BME280;28126;51.060;19.460;2022-08-21T10:45:42;99594.12;;;27.20;56.64
42177;BME280;28126;51.060;19.460;2022-08-21T10:48:55;99589.94;;;27.22;56.54
42177;BME280;28126;51.060;19.460;2022-08-21T10:55:55;99595.72;;;27.23;56.39
42177;BME280;28126;51.060;19.460;2022-08-21T10:59:28;99600.45;;;27.23;56.64
42177;BME280;28126;51.060;19.460;2022-08-21T11:02:42;99596.55;;;27.24;56.48
42177;BME280;28126;51.060;19.460;2022-08-21T11:05:53;99602.07;;;27.24;56.62
42177;BME280;28126;51.060;19.460;2022-08-21T11:08:59;99604.80;;;27.26;56.56
42177;BME280;28126;51.060;19.460;2022-08-21T11:12:24;99599.83;;;27.26;56.40
42177;BME280;28126;51.060;19.460;2022-08-21T11:15:49;99606.19;;;27.26;56.51
42177;BME280;28126;51.060;19.460;2022-08-21T11:22:31;99598.91;;;27.33;56.76
42177;BME280;28126;51.060;19.460;2022-08-21T11:25:39;99588.59;;;27.38;56.80
42177;BME280;28126;51.060;19.460;2022-08-21T11:35:47;99592.70;;;27.41;57.10
42177;BME280;28126;51.060;19.460;2022-08-21T11:45:54;99592.64;;;27.46;56.99
42177;BME280;28126;51.060;19.460;2022-08-21T11:52:16;99587.26;;;27.52;56.88
42177;BME280;28126;51.060;19.460;2022-08-21T11:58:35;99576.89;;;27.60;56.91
42177;BME280;28126;51.060;19.460;2022-08-21T12:01:41;99583.22;;;27.63;56.67
42177;BME280;28126;51.060;19.460;2022-08-21T12:04:51;99571.09;;;27.61;56.55
42177;BME280;28126;51.060;19.460;2022-08-21T12:08:04;99576.31;;;27.63;56.63
42177;BME280;28126;51.060;19.460;2022-08-21T12:11:08;99581.22;;;27.66;56.61
42177;BME280;28126;51.060;19.460;2022-08-21T12:14:17;99579.59;;;27.65;56.55
42177;BME280;28126;51.060;19.460;2022-08-21T12:17:22;99575.96;;;27.67;56.46
42177;BME280;28126;51.060;19.460;2022-08-21T12:20:44;99567.91;;;27.68;56.48
42177;BME280;28126;51.060;19.460;2022-08-21T12:27:30;99573.41;;;27.70;56.75
42177;BME280;28126;51.060;19.460;2022-08-21T12:30:37;99562.89;;;27.70;56.83
42177;BME280;28126;51.060;19.460;2022-08-21T12:33:40;99564.80;;;27.72;56.79
42177;BME280;28126;51.060;19.460;2022-08-21T12:36:53;99564.24;;;27.72;56.80
42177;BME280;28126;51.060;19.460;2022-08-21T12:39:52;99561.41;;;27.75;56.79
42177;BME280;28126;51.060;19.460;2022-08-21T12:42:59;99557.53;;;27.76;56.75
42177;BME280;28126;51.060;19.460;2022-08-21T12:46:01;99553.04;;;27.80;56.65
42177;BME280;28126;51.060;19.460;2022-08-21T12:49:26;99548.84;;;27.82;56.49
42177;BME280;28126;51.060;19.460;2022-08-21T12:52:38;99546.33;;;27.83;56.33
42177;BME280;28126;51.060;19.460;2022-08-21T12:55:42;99546.59;;;27.84;56.40
42177;BME280;28126;51.060;19.460;2022-08-21T12:58:48;99548.19;;;27.88;56.47
42177;BME280;28126;51.060;19.460;2022-08-21T13:01:51;99537.13;;;27.88;56.53
42177;BME280;28126;51.060;19.460;2022-08-21T13:04:56;99548.19;;;27.88;56.73
42177;BME280;28126;51.060;19.460;2022-08-21T13:08:03;99549.50;;;27.91;56.61
42177;BME280;28126;51.060;19.460;2022-08-21T13:11:05;99547.05;;;27.89;56.64
42177;BME280;28126;51.060;19.460;2022-08-21T13:14:15;99539.78;;;27.93;56.45
42177;BME280;28126;51.060;19.460;2022-08-21T13:17:20;99542.85;;;27.94;56.28
42177;BME280;28126;51.060;19.460;2022-08-21T13:20:27;99539.22;;;27.96;56.21
42177;BME280;28126;51.060;19.460;2022-08-21T13:23:31;99530.09;;;27.93;55.98
42177;BME280;28126;51.060;19.460;2022-08-21T13:26:33;99536.25;;;27.90;56.13
42177;BME280;28126;51.060;19.460;2022-08-21T13:29:34;99539.02;;;27.90;56.27
42177;BME280;28126;51.060;19.460;2022-08-21T13:32:41;99535.95;;;27.92;56.63
42177;BME280;28126;51.060;19.460;2022-08-21T13:39:12;99550.33;;;27.91;56.85
42177;BME280;28126;51.060;19.460;2022-08-21T13:42:15;99551.75;;;27.88;57.18
42177;BME280;28126;51.060;19.460;2022-08-21T13:45:24;99549.85;;;27.86;57.32
42177;BME280;28126;51.060;19.460;2022-08-21T13:48:30;99547.16;;;27.84;57.53
42177;BME280;28126;51.060;19.460;2022-08-21T13:51:34;99556.56;;;27.83;57.65
42177;BME280;28126;51.060;19.460;2022-08-21T13:54:40;99548.54;;;27.84;57.77
42177;BME280;28126;51.060;19.460;2022-08-21T13:57:42;99555.70;;;27.85;58.08
42177;BME280;28126;51.060;19.460;2022-08-21T14:00:47;99555.70;;;27.85;58.04
42177;BME280;28126;51.060;19.460;2022-08-21T14:03:53;99559.33;;;27.83;58.24
42177;BME280;28126;51.060;19.460;2022-08-21T14:06:57;99545.50;;;27.83;58.19
42177;BME280;28126;51.060;19.460;2022-08-21T14:10:10;99557.19;;;27.80;58.24
42177;BME280;28126;51.060;19.460;2022-08-21T14:13:33;99559.95;;;27.80;58.40
42177;BME280;28126;51.060;19.460;2022-08-21T14:16:52;99559.33;;;27.83;58.51
42177;BME280;28126;51.060;19.460;2022-08-21T14:19:51;99558.57;;;27.80;58.49
42177;BME280;28126;51.060;19.460;2022-08-21T14:22:57;99564.97;;;27.78;58.65
42177;BME280;28126;51.060;19.460;2022-08-21T14:26:05;99568.32;;;27.75;58.61
42177;BME280;28126;51.060;19.460;2022-08-21T14:29:08;99579.17;;;27.71;58.73
42177;BME280;28126;51.060;19.460;2022-08-21T14:32:21;99575.61;;;27.71;58.70
42177;BME280;28126;51.060;19.460;2022-08-21T14:35:24;99575.09;;;27.69;58.63
42177;BME280;28126;51.060;19.460;2022-08-21T14:38:28;99585.64;;;27.67;58.69
42177;BME280;28126;51.060;19.460;2022-08-21T14:41:30;99579.52;;;27.67;58.70
42177;BME280;28126;51.060;19.460;2022-08-21T14:44:31;99584.81;;;27.66;58.69
42177;BME280;28126;51.060;19.460;2022-08-21T14:47:33;99587.61;;;27.64;58.72
42177;BME280;28126;51.060;19.460;2022-08-21T14:50:37;99596.25;;;27.60;58.66
42177;BME280;28126;51.060;19.460;2022-08-21T14:53:39;99590.78;;;27.57;58.44
42177;BME280;28126;51.060;19.460;2022-08-21T14:56:40;99601.36;;;27.53;58.41
42177;BME280;28126;51.060;19.460;2022-08-21T14:59:45;99601.39;;;27.50;58.40
42177;BME280;28126;51.060;19.460;2022-08-21T15:02:46;99611.13;;;27.48;58.38
42177;BME280;28126;51.060;19.460;2022-08-21T15:05:48;99608.70;;;27.44;58.48
42177;BME280;28126;51.060;19.460;2022-08-21T15:08:51;99620.87;;;27.43;58.45
42177;BME280;28126;51.060;19.460;2022-08-21T15:11:56;99621.20;;;27.39;58.49
42177;BME280;28126;51.060;19.460;2022-08-21T15:15:07;99618.84;;;27.30;58.58
42177;BME280;28126;51.060;19.460;2022-08-21T15:18:09;99611.74;;;27.24;58.75
42177;BME280;28126;51.060;19.460;2022-08-21T15:21:10;99608.67;;;27.25;58.76
42177;BME280;28126;51.060;19.460;2022-08-21T15:24:12;99611.13;;;27.27;58.75
42177;BME280;28126;51.060;19.460;2022-08-21T15:27:16;99616.91;;;27.30;58.72
42177;BME280;28126;51.060;19.460;2022-08-21T15:30:18;99627.93;;;27.33;58.60
42177;BME280;28126;51.060;19.460;2022-08-21T15:33:20;99622.67;;;27.31;58.53
42177;BME280;28126;51.060;19.460;2022-08-21T15:36:22;99632.13;;;27.28;58.68
42177;BME280;28126;51.060;19.460;2022-08-21T15:39:25;99630.78;;;27.25;58.52
42177;BME280;28126;51.060;19.460;2022-08-21T15:42:27;99632.22;;;27.23;58.66
42177;BME280;28126;51.060;19.460;2022-08-21T15:45:30;99635.56;;;27.20;58.72
42177;BME280;28126;51.060;19.460;2022-08-21T15:48:33;99633.11;;;27.18;58.86
42177;BME280;28126;51.060;19.460;2022-08-21T15:51:34;99640.66;;;27.13;59.20
42177;BME280;28126;51.060;19.460;2022-08-21T15:54:36;99649.25;;;27.11;59.22
42177;BME280;28126;51.060;19.460;2022-08-21T15:57:45;99655.66;;;27.07;59.32
42177;BME280;28126;51.060;19.460;2022-08-21T16:00:47;99644.08;;;27.05;59.57
42177;BME280;28126;51.060;19.460;2022-08-21T16:03:52;99642.37;;;27.09;59.39
42177;BME280;28126;51.060;19.460;2022-08-21T16:06:55;99658.11;;;27.08;59.45
42177;BME280;28126;51.060;19.460;2022-08-21T16:09:56;99660.35;;;27.06;59.63
42177;BME280;28126;51.060;19.460;2022-08-21T16:13:02;99662.64;;;27.02;59.75
42177;BME280;28126;51.060;19.460;2022-08-21T16:16:05;99659.61;;;27.01;59.47
42177;BME280;28126;51.060;19.460;2022-08-21T16:19:08;99668.25;;;26.94;59.30
42177;BME280;28126;51.060;19.460;2022-08-21T16:22:10;99675.33;;;26.81;59.50
42177;BME280;28126;51.060;19.460;2022-08-21T16:25:14;99675.73;;;26.72;59.66
42177;BME280;28126;51.060;19.460;2022-08-21T16:28:17;99679.72;;;26.59;59.85
42177;BME280;28126;51.060;19.460;2022-08-21T16:31:20;99682.25;;;26.55;60.13
42177;BME280;28126;51.060;19.460;2022-08-21T16:34:24;99687.48;;;26.57;60.20
42177;BME280;28126;51.060;19.460;2022-08-21T16:37:28;99693.30;;;26.55;60.18
42177;BME280;28126;51.060;19.460;2022-08-21T16:40:29;99683.67;;;26.50;60.37
42177;BME280;28126;51.060;19.460;2022-08-21T16:43:31;99665.16;;;26.53;60.46
42177;BME280;28126;51.060;19.460;2022-08-21T16:46:37;99671.21;;;26.55;60.40
42177;BME280;28126;51.060;19.460;2022-08-21T16:49:39;99676.44;;;26.57;60.38
42177;BME280;28126;51.060;19.460;2022-08-21T16:52:40;99666.77;;;26.57;60.42
42177;BME280;28126;51.060;19.460;2022-08-21T16:55:43;99661.80;;;26.56;60.38
42177;BME280;28126;51.060;19.460;2022-08-21T16:58:47;99674.22;;;26.56;60.45
42177;BME280;28126;51.060;19.460;2022-08-21T17:01:50;99681.97;;;26.54;60.41
42177;BME280;28126;51.060;19.460;2022-08-21T17:04:54;99678.69;;;26.52;60.55
42177;BME280;28126;51.060;19.460;2022-08-21T17:07:56;99681.45;;;26.52;60.53
42177;BME280;28126;51.060;19.460;2022-08-21T17:10:58;99678.15;;;26.50;60.59
42177;BME280;28126;51.060;19.460;2022-08-21T17:14:15;99681.20;;;26.51;60.50
42177;BME280;28126;51.060;19.460;2022-08-21T17:17:13;99676.84;;;26.45;60.53
42177;BME280;28126;51.060;19.460;2022-08-21T17:20:15;99684.84;;;26.44;60.78